sensor_id;sensor_type;location;lat;lon;timestamp;temperature;humidity
4520;DHT22;2272;49.226;8.108;2024-03-08T00:00:17;3.20;99.90
4520;DHT22;2272;49.226;8.108;2024-03-08T00:02:45;3.20;99.90
4520;DHT22;2272;49.226;8.108;2024-03-08T00:05:15;3.20;99.90
4520;DHT22;2272;49.226;8.108;2024-03-08T00:07:43;3.10;99.90
4520;DHT22;2272;49.226;8.108;2024-03-08T00:10:12;3.00;99.90
4520;DHT22;2272;49.226;8.108;2024-03-08T00:12:39;3.00;99.90
4520;DHT22;2272;49.226;8.108;2024-03-08T00:15:08;2.90;99.90
4520;DHT22;2272;49.226;8.108;2024-03-08T00:17:35;2.90;99.90
4520;DHT22;2272;49.226;8.108;2024-03-08T00:20:01;2.80;99.90
4520;DHT22;2272;49.226;8.108;2024-03-08T00:22:35;2.70;99.90
4520;DHT22;2272;49.226;8.108;2024-03-08T00:25:02;2.70;99.90
4520;DHT22;2272;49.226;8.108;2024-03-08T00:27:29;2.70;99.90
4520;DHT22;2272;49.226;8.108;2024-03-08T00:29:56;2.70;99.90
4520;DHT22;2272;49.226;8.108;2024-03-08T00:32:23;2.70;99.90
4520;DHT22;2272;49.226;8.108;2024-03-08T00:34:50;2.70;99.90
4520;DHT22;2272;49.226;8.108;2024-03-08T00:37:18;2.70;99.90
4520;DHT22;2272;49.226;8.108;2024-03-08T00:39:46;2.60;99.90
4520;DHT22;2272;49.226;8.108;2024-03-08T00:42:13;2.60;99.90
4520;DHT22;2272;49.226;8.108;2024-03-08T00:44:39;2.60;99.90
4520;DHT22;2272;49.226;8.108;2024-03-08T00:47:06;2.50;99.90
4520;DHT22;2272;49.226;8.108;2024-03-08T00:49:33;2.50;99.90
4520;DHT22;2272;49.226;8.108;2024-03-08T00:52:00;2.50;99.90
4520;DHT22;2272;49.226;8.108;2024-03-08T00:54:26;2.40;99.90
4520;DHT22;2272;49.226;8.108;2024-03-08T00:56:54;2.40;99.90
4520;DHT22;2272;49.226;8.108;2024-03-08T00:59:21;2.40;99.90
4520;DHT22;2272;49.226;8.108;2024-03-08T01:01:48;2.30;99.90
4520;DHT22;2272;49.226;8.108;2024-03-08T01:04:14;2.30;99.90
4520;DHT22;2272;49.226;8.108;2024-03-08T01:06:41;2.20;99.90
4520;DHT22;2272;49.226;8.108;2024-03-08T01:09:11;2.20;99.90
4520;DHT22;2272;49.226;8.108;2024-03-08T01:11:37;2.00;99.90
4520;DHT22;2272;49.226;8.108;2024-03-08T01:14:08;2.10;99.90
4520;DHT22;2272;49.226;8.108;2024-03-08T01:16:35;2.00;99.90
4520;DHT22;2272;49.226;8.108;2024-03-08T01:19:01;2.00;99.90
4520;DHT22;2272;49.226;8.108;2024-03-08T01:23:55;1.90;99.90
4520;DHT22;2272;49.226;8.108;2024-03-08T01:26:22;1.90;99.90
4520;DHT22;2272;49.226;8.108;2024-03-08T01:28:49;1.90;99.90
4520;DHT22;2272;49.226;8.108;2024-03-08T01:31:17;1.80;99.90
4520;DHT22;2272;49.226;8.108;2024-03-08T01:33:44;1.80;99.90
4520;DHT22;2272;49.226;8.108;2024-03-08T01:36:11;1.70;99.90
4520;DHT22;2272;49.226;8.108;2024-03-08T01:38:40;1.70;99.90
4520;DHT22;2272;49.226;8.108;2024-03-08T01:41:07;1.60;99.90
4520;DHT22;2272;49.226;8.108;2024-03-08T01:43:34;1.60;99.90
4520;DHT22;2272;49.226;8.108;2024-03-08T01:46:01;1.60;99.90
4520;DHT22;2272;49.226;8.108;2024-03-08T01:48:30;1.50;99.90
4520;DHT22;2272;49.226;8.108;2024-03-08T01:50:57;1.50;99.90
4520;DHT22;2272;49.226;8.108;2024-03-08T01:53:24;1.50;99.90
4520;DHT22;2272;49.226;8.108;2024-03-08T01:55:54;1.50;99.90
4520;DHT22;2272;49.226;8.108;2024-03-08T01:58:22;1.50;99.90
4520;DHT22;2272;49.226;8.108;2024-03-08T02:00:49;1.40;99.90
4520;DHT22;2272;49.226;8.108;2024-03-08T02:03:16;1.40;99.90
4520;DHT22;2272;49.226;8.108;2024-03-08T02:05:44;1.40;99.90
4520;DHT22;2272;49.226;8.108;2024-03-08T02:08:11;1.30;99.90
4520;DHT22;2272;49.226;8.108;2024-03-08T02:10:40;1.30;99.90
4520;DHT22;2272;49.226;8.108;2024-03-08T02:13:07;1.20;99.90
4520;DHT22;2272;49.226;8.108;2024-03-08T02:15:53;1.20;99.90
4520;DHT22;2272;49.226;8.108;2024-03-08T02:18:25;1.20;99.90
4520;DHT22;2272;49.226;8.108;2024-03-08T02:20:53;1.20;99.90
4520;DHT22;2272;49.226;8.108;2024-03-08T02:25:48;1.10;99.90
4520;DHT22;2272;49.226;8.108;2024-03-08T02:28:15;1.10;99.90
4520;DHT22;2272;49.226;8.108;2024-03-08T02:30:44;1.20;99.90
4520;DHT22;2272;49.226;8.108;2024-03-08T02:35:42;1.10;99.90
4520;DHT22;2272;49.226;8.108;2024-03-08T02:38:12;1.10;99.90
4520;DHT22;2272;49.226;8.108;2024-03-08T02:40:41;1.10;99.90
4520;DHT22;2272;49.226;8.108;2024-03-08T02:43:08;1.10;99.90
4520;DHT22;2272;49.226;8.108;2024-03-08T02:45:35;1.00;99.90
4520;DHT22;2272;49.226;8.108;2024-03-08T02:48:02;0.90;99.90
4520;DHT22;2272;49.226;8.108;2024-03-08T02:50:28;0.90;99.90
4520;DHT22;2272;49.226;8.108;2024-03-08T02:52:55;0.90;99.90
4520;DHT22;2272;49.226;8.108;2024-03-08T02:55:23;0.90;99.90
4520;DHT22;2272;49.226;8.108;2024-03-08T02:57:51;0.80;99.90
4520;DHT22;2272;49.226;8.108;2024-03-08T03:00:20;0.80;99.90
4520;DHT22;2272;49.226;8.108;2024-03-08T03:02:48;0.80;99.90
4520;DHT22;2272;49.226;8.108;2024-03-08T03:05:17;0.80;99.90
4520;DHT22;2272;49.226;8.108;2024-03-08T03:07:44;0.80;99.90
4520;DHT22;2272;49.226;8.108;2024-03-08T03:10:10;0.80;99.90
4520;DHT22;2272;49.226;8.108;2024-03-08T03:12:44;0.70;99.90
4520;DHT22;2272;49.226;8.108;2024-03-08T03:17:38;0.60;99.90
4520;DHT22;2272;49.226;8.108;2024-03-08T03:20:06;0.60;99.90
4520;DHT22;2272;49.226;8.108;2024-03-08T03:22:39;0.60;99.90
4520;DHT22;2272;49.226;8.108;2024-03-08T03:25:07;0.60;99.90
4520;DHT22;2272;49.226;8.108;2024-03-08T03:27:35;0.60;99.90
4520;DHT22;2272;49.226;8.108;2024-03-08T03:32:46;0.50;99.90
4520;DHT22;2272;49.226;8.108;2024-03-08T03:35:13;0.60;99.90
4520;DHT22;2272;49.226;8.108;2024-03-08T03:37:41;0.60;99.90
4520;DHT22;2272;49.226;8.108;2024-03-08T03:40:11;0.60;99.90
4520;DHT22;2272;49.226;8.108;2024-03-08T03:42:38;0.60;99.90
4520;DHT22;2272;49.226;8.108;2024-03-08T03:45:07;0.50;99.90
4520;DHT22;2272;49.226;8.108;2024-03-08T03:47:35;0.50;99.90
4520;DHT22;2272;49.226;8.108;2024-03-08T03:50:04;0.50;99.90
4520;DHT22;2272;49.226;8.108;2024-03-08T03:52:31;0.50;99.90
4520;DHT22;2272;49.226;8.108;2024-03-08T03:54:58;0.50;99.90
4520;DHT22;2272;49.226;8.108;2024-03-08T03:57:25;0.40;99.90
4520;DHT22;2272;49.226;8.108;2024-03-08T03:59:51;0.50;99.90
4520;DHT22;2272;49.226;8.108;2024-03-08T04:02:19;0.50;99.90
4520;DHT22;2272;49.226;8.108;2024-03-08T04:04:46;0.40;99.90
4520;DHT22;2272;49.226;8.108;2024-03-08T04:07:13;0.40;99.90
4520;DHT22;2272;49.226;8.108;2024-03-08T04:09:40;0.40;99.90
4520;DHT22;2272;49.226;8.108;2024-03-08T04:12:07;0.30;99.90
4520;DHT22;2272;49.226;8.108;2024-03-08T04:14:35;0.30;99.90
4520;DHT22;2272;49.226;8.108;2024-03-08T04:17:02;0.30;99.90
4520;DHT22;2272;49.226;8.108;2024-03-08T04:19:30;0.30;99.90
4520;DHT22;2272;49.226;8.108;2024-03-08T04:21:57;0.30;99.90
4520;DHT22;2272;49.226;8.108;2024-03-08T04:24:23;0.30;99.90
4520;DHT22;2272;49.226;8.108;2024-03-08T04:26:50;0.20;99.90
4520;DHT22;2272;49.226;8.108;2024-03-08T04:29:17;0.30;99.90
4520;DHT22;2272;49.226;8.108;2024-03-08T04:31:44;0.30;99.90
4520;DHT22;2272;49.226;8.108;2024-03-08T04:34:11;0.30;99.90
4520;DHT22;2272;49.226;8.108;2024-03-08T04:36:39;0.30;99.90
4520;DHT22;2272;49.226;8.108;2024-03-08T04:39:06;0.20;99.90
4520;DHT22;2272;49.226;8.108;2024-03-08T04:41:37;0.20;99.90
4520;DHT22;2272;49.226;8.108;2024-03-08T04:44:04;0.20;99.90
4520;DHT22;2272;49.226;8.108;2024-03-08T04:46:31;0.30;99.90
4520;DHT22;2272;49.226;8.108;2024-03-08T04:48:58;0.30;99.90
4520;DHT22;2272;49.226;8.108;2024-03-08T04:51:25;0.20;99.90
4520;DHT22;2272;49.226;8.108;2024-03-08T04:53:53;0.20;99.90
4520;DHT22;2272;49.226;8.108;2024-03-08T04:56:20;0.20;99.90
4520;DHT22;2272;49.226;8.108;2024-03-08T04:58:47;0.10;99.90
4520;DHT22;2272;49.226;8.108;2024-03-08T05:01:13;0.10;99.90
4520;DHT22;2272;49.226;8.108;2024-03-08T05:03:40;0.10;99.90
4520;DHT22;2272;49.226;8.108;2024-03-08T05:06:07;0.10;99.90
4520;DHT22;2272;49.226;8.108;2024-03-08T05:08:34;0.00;99.90
4520;DHT22;2272;49.226;8.108;2024-03-08T05:11:02;0.00;99.90
4520;DHT22;2272;49.226;8.108;2024-03-08T05:13:32;0.00;99.90
4520;DHT22;2272;49.226;8.108;2024-03-08T05:15:59;0.00;99.90
4520;DHT22;2272;49.226;8.108;2024-03-08T05:18:26;0.00;99.90
4520;DHT22;2272;49.226;8.108;2024-03-08T05:20:54;0.00;99.90
4520;DHT22;2272;49.226;8.108;2024-03-08T05:23:21;0.10;99.90
4520;DHT22;2272;49.226;8.108;2024-03-08T05:25:47;0.00;99.90
4520;DHT22;2272;49.226;8.108;2024-03-08T05:28:16;0.00;99.90
4520;DHT22;2272;49.226;8.108;2024-03-08T05:30:42;0.00;99.90
4520;DHT22;2272;49.226;8.108;2024-03-08T05:33:09;0.00;99.90
4520;DHT22;2272;49.226;8.108;2024-03-08T05:35:36;-0.10;99.90
4520;DHT22;2272;49.226;8.108;2024-03-08T05:38:03;-0.10;99.90
4520;DHT22;2272;49.226;8.108;2024-03-08T05:40:30;-0.10;99.90
4520;DHT22;2272;49.226;8.108;2024-03-08T05:42:58;-0.10;99.90
4520;DHT22;2272;49.226;8.108;2024-03-08T05:45:26;-0.10;99.90
4520;DHT22;2272;49.226;8.108;2024-03-08T05:47:53;-0.10;99.90
4520;DHT22;2272;49.226;8.108;2024-03-08T05:50:19;-0.20;99.90
4520;DHT22;2272;49.226;8.108;2024-03-08T05:52:47;-0.10;99.90
4520;DHT22;2272;49.226;8.108;2024-03-08T05:55:15;-0.10;99.90
4520;DHT22;2272;49.226;8.108;2024-03-08T05:57:41;-0.10;99.90
4520;DHT22;2272;49.226;8.108;2024-03-08T06:00:10;-0.10;99.90
4520;DHT22;2272;49.226;8.108;2024-03-08T06:02:38;-0.10;99.90
4520;DHT22;2272;49.226;8.108;2024-03-08T06:05:08;-0.20;99.90
4520;DHT22;2272;49.226;8.108;2024-03-08T06:07:34;-0.10;99.90
4520;DHT22;2272;49.226;8.108;2024-03-08T06:10:01;-0.10;99.90
4520;DHT22;2272;49.226;8.108;2024-03-08T06:12:28;-0.10;99.90
4520;DHT22;2272;49.226;8.108;2024-03-08T06:14:59;-0.10;99.90
4520;DHT22;2272;49.226;8.108;2024-03-08T06:17:25;-0.10;99.90
4520;DHT22;2272;49.226;8.108;2024-03-08T06:19:53;0.00;99.90
4520;DHT22;2272;49.226;8.108;2024-03-08T06:22:20;0.00;99.90
4520;DHT22;2272;49.226;8.108;2024-03-08T06:24:47;0.00;99.90
4520;DHT22;2272;49.226;8.108;2024-03-08T06:27:14;0.10;99.90
4520;DHT22;2272;49.226;8.108;2024-03-08T06:29:40;0.10;99.90
4520;DHT22;2272;49.226;8.108;2024-03-08T06:32:07;0.20;99.90
4520;DHT22;2272;49.226;8.108;2024-03-08T06:34:34;0.20;99.90
4520;DHT22;2272;49.226;8.108;2024-03-08T06:37:02;0.30;99.90
4520;DHT22;2272;49.226;8.108;2024-03-08T06:39:29;0.30;99.90
4520;DHT22;2272;49.226;8.108;2024-03-08T06:41:57;0.40;99.90
4520;DHT22;2272;49.226;8.108;2024-03-08T06:44:23;0.50;99.90
4520;DHT22;2272;49.226;8.108;2024-03-08T06:46:51;0.60;99.90
4520;DHT22;2272;49.226;8.108;2024-03-08T06:49:17;0.60;99.90
4520;DHT22;2272;49.226;8.108;2024-03-08T06:51:45;0.70;99.90
4520;DHT22;2272;49.226;8.108;2024-03-08T06:54:13;0.70;99.90
4520;DHT22;2272;49.226;8.108;2024-03-08T06:56:39;0.80;99.90
4520;DHT22;2272;49.226;8.108;2024-03-08T06:59:06;0.90;99.90
4520;DHT22;2272;49.226;8.108;2024-03-08T07:01:36;1.00;99.90
4520;DHT22;2272;49.226;8.108;2024-03-08T07:04:03;1.10;99.90
4520;DHT22;2272;49.226;8.108;2024-03-08T07:06:32;1.10;99.90
4520;DHT22;2272;49.226;8.108;2024-03-08T07:08:59;1.20;99.90
4520;DHT22;2272;49.226;8.108;2024-03-08T07:11:27;1.30;99.90
4520;DHT22;2272;49.226;8.108;2024-03-08T07:13:54;1.40;99.90
4520;DHT22;2272;49.226;8.108;2024-03-08T07:16:21;1.40;99.90
4520;DHT22;2272;49.226;8.108;2024-03-08T07:18:47;1.50;99.90
4520;DHT22;2272;49.226;8.108;2024-03-08T07:21:17;1.60;99.90
4520;DHT22;2272;49.226;8.108;2024-03-08T07:23:45;1.70;99.90
4520;DHT22;2272;49.226;8.108;2024-03-08T07:26:40;1.70;99.90
4520;DHT22;2272;49.226;8.108;2024-03-08T07:29:06;1.80;99.90
4520;DHT22;2272;49.226;8.108;2024-03-08T07:31:33;1.90;99.90
4520;DHT22;2272;49.226;8.108;2024-03-08T07:34:10;2.00;99.90
4520;DHT22;2272;49.226;8.108;2024-03-08T07:36:38;2.10;99.90
4520;DHT22;2272;49.226;8.108;2024-03-08T07:39:04;2.20;99.90
4520;DHT22;2272;49.226;8.108;2024-03-08T07:41:37;2.20;99.90
4520;DHT22;2272;49.226;8.108;2024-03-08T07:44:06;2.30;99.90
4520;DHT22;2272;49.226;8.108;2024-03-08T07:46:33;2.30;99.90
4520;DHT22;2272;49.226;8.108;2024-03-08T07:49:00;2.40;99.90
4520;DHT22;2272;49.226;8.108;2024-03-08T07:51:27;2.50;99.90
4520;DHT22;2272;49.226;8.108;2024-03-08T07:53:53;2.60;99.90
4520;DHT22;2272;49.226;8.108;2024-03-08T07:56:21;2.70;99.90
4520;DHT22;2272;49.226;8.108;2024-03-08T07:58:47;2.80;99.90
4520;DHT22;2272;49.226;8.108;2024-03-08T08:01:19;2.90;99.90
4520;DHT22;2272;49.226;8.108;2024-03-08T08:03:46;2.90;99.90
4520;DHT22;2272;49.226;8.108;2024-03-08T08:06:14;3.00;99.90
4520;DHT22;2272;49.226;8.108;2024-03-08T08:08:42;3.00;99.90
4520;DHT22;2272;49.226;8.108;2024-03-08T08:11:09;3.10;99.90
4520;DHT22;2272;49.226;8.108;2024-03-08T08:13:37;3.20;99.90
4520;DHT22;2272;49.226;8.108;2024-03-08T08:16:05;3.30;99.90
4520;DHT22;2272;49.226;8.108;2024-03-08T08:18:33;3.50;99.90
4520;DHT22;2272;49.226;8.108;2024-03-08T08:21:00;3.50;99.90
4520;DHT22;2272;49.226;8.108;2024-03-08T08:23:27;3.70;99.90
4520;DHT22;2272;49.226;8.108;2024-03-08T08:25:54;3.90;99.90
4520;DHT22;2272;49.226;8.108;2024-03-08T08:28:21;4.00;99.90
4520;DHT22;2272;49.226;8.108;2024-03-08T08:30:48;4.20;99.90
4520;DHT22;2272;49.226;8.108;2024-03-08T08:33:15;4.40;99.90
4520;DHT22;2272;49.226;8.108;2024-03-08T08:35:43;4.60;99.90
4520;DHT22;2272;49.226;8.108;2024-03-08T08:38:10;4.90;99.90
4520;DHT22;2272;49.226;8.108;2024-03-08T08:40:37;5.10;99.90
4520;DHT22;2272;49.226;8.108;2024-03-08T08:43:04;5.20;99.90
4520;DHT22;2272;49.226;8.108;2024-03-08T08:45:31;5.40;99.90
4520;DHT22;2272;49.226;8.108;2024-03-08T08:47:58;5.60;99.90
4520;DHT22;2272;49.226;8.108;2024-03-08T08:50:26;5.80;99.90
4520;DHT22;2272;49.226;8.108;2024-03-08T08:52:55;6.10;99.90
4520;DHT22;2272;49.226;8.108;2024-03-08T08:55:22;6.30;99.90
4520;DHT22;2272;49.226;8.108;2024-03-08T08:57:51;6.50;99.90
4520;DHT22;2272;49.226;8.108;2024-03-08T09:00:18;6.70;99.90
4520;DHT22;2272;49.226;8.108;2024-03-08T09:02:46;6.90;99.90
4520;DHT22;2272;49.226;8.108;2024-03-08T09:05:13;7.00;99.90
4520;DHT22;2272;49.226;8.108;2024-03-08T09:07:47;7.10;99.90
4520;DHT22;2272;49.226;8.108;2024-03-08T09:10:16;7.10;99.90
4520;DHT22;2272;49.226;8.108;2024-03-08T09:12:44;7.10;99.90
4520;DHT22;2272;49.226;8.108;2024-03-08T09:15:11;7.20;99.90
4520;DHT22;2272;49.226;8.108;2024-03-08T09:17:37;7.20;99.90
4520;DHT22;2272;49.226;8.108;2024-03-08T09:20:06;7.40;99.90
4520;DHT22;2272;49.226;8.108;2024-03-08T09:22:34;7.50;99.90
4520;DHT22;2272;49.226;8.108;2024-03-08T09:25:00;7.50;99.90
4520;DHT22;2272;49.226;8.108;2024-03-08T09:27:28;7.50;99.90
4520;DHT22;2272;49.226;8.108;2024-03-08T09:29:55;7.40;99.90
4520;DHT22;2272;49.226;8.108;2024-03-08T09:32:22;7.40;99.90
4520;DHT22;2272;49.226;8.108;2024-03-08T09:34:49;7.40;99.90
4520;DHT22;2272;49.226;8.108;2024-03-08T09:37:15;7.30;99.90
4520;DHT22;2272;49.226;8.108;2024-03-08T09:39:43;7.30;99.90
4520;DHT22;2272;49.226;8.108;2024-03-08T09:42:09;7.20;99.90
4520;DHT22;2272;49.226;8.108;2024-03-08T09:44:44;7.20;99.90
4520;DHT22;2272;49.226;8.108;2024-03-08T09:47:13;7.20;99.90
4520;DHT22;2272;49.226;8.108;2024-03-08T09:49:40;7.10;99.90
4520;DHT22;2272;49.226;8.108;2024-03-08T09:52:07;7.10;99.90
4520;DHT22;2272;49.226;8.108;2024-03-08T09:54:35;7.20;99.90
4520;DHT22;2272;49.226;8.108;2024-03-08T09:57:04;7.30;99.90
4520;DHT22;2272;49.226;8.108;2024-03-08T09:59:30;7.30;99.90
4520;DHT22;2272;49.226;8.108;2024-03-08T10:02:16;7.30;99.90
4520;DHT22;2272;49.226;8.108;2024-03-08T10:04:51;7.20;99.90
4520;DHT22;2272;49.226;8.108;2024-03-08T10:07:23;7.20;99.90
4520;DHT22;2272;49.226;8.108;2024-03-08T10:10:12;7.20;99.90
4520;DHT22;2272;49.226;8.108;2024-03-08T10:12:39;7.20;99.90
4520;DHT22;2272;49.226;8.108;2024-03-08T10:15:06;7.20;99.90
4520;DHT22;2272;49.226;8.108;2024-03-08T10:17:35;7.20;99.90
4520;DHT22;2272;49.226;8.108;2024-03-08T10:20:02;7.30;99.90
4520;DHT22;2272;49.226;8.108;2024-03-08T10:22:41;7.40;99.90
4520;DHT22;2272;49.226;8.108;2024-03-08T10:25:10;7.60;99.90
4520;DHT22;2272;49.226;8.108;2024-03-08T10:27:38;7.60;99.90
4520;DHT22;2272;49.226;8.108;2024-03-08T10:30:07;7.70;99.90
4520;DHT22;2272;49.226;8.108;2024-03-08T10:32:39;7.60;99.90
4520;DHT22;2272;49.226;8.108;2024-03-08T10:35:10;7.80;99.90
4520;DHT22;2272;49.226;8.108;2024-03-08T10:37:44;8.00;99.90
4520;DHT22;2272;49.226;8.108;2024-03-08T10:40:16;8.30;99.90
4520;DHT22;2272;49.226;8.108;2024-03-08T10:42:51;8.40;99.90
4520;DHT22;2272;49.226;8.108;2024-03-08T10:45:26;8.30;99.90
4520;DHT22;2272;49.226;8.108;2024-03-08T10:48:10;8.30;99.90
4520;DHT22;2272;49.226;8.108;2024-03-08T10:50:42;8.20;99.90
4520;DHT22;2272;49.226;8.108;2024-03-08T10:53:11;8.10;99.90
4520;DHT22;2272;49.226;8.108;2024-03-08T10:55:40;8.00;99.90
4520;DHT22;2272;49.226;8.108;2024-03-08T10:58:07;8.00;99.90
4520;DHT22;2272;49.226;8.108;2024-03-08T11:00:34;8.00;99.90
4520;DHT22;2272;49.226;8.108;2024-03-08T11:03:03;8.00;99.90
4520;DHT22;2272;49.226;8.108;2024-03-08T11:05:38;8.10;99.90
4520;DHT22;2272;49.226;8.108;2024-03-08T11:08:16;8.20;99.90
4520;DHT22;2272;49.226;8.108;2024-03-08T11:10:49;8.40;99.90
4520;DHT22;2272;49.226;8.108;2024-03-08T11:13:33;8.50;99.90
4520;DHT22;2272;49.226;8.108;2024-03-08T11:16:01;8.50;99.90
4520;DHT22;2272;49.226;8.108;2024-03-08T11:18:33;8.40;99.90
4520;DHT22;2272;49.226;8.108;2024-03-08T11:21:02;8.40;99.90
4520;DHT22;2272;49.226;8.108;2024-03-08T11:23:32;8.40;99.90
4520;DHT22;2272;49.226;8.108;2024-03-08T11:25:59;8.40;99.90
4520;DHT22;2272;49.226;8.108;2024-03-08T11:28:26;8.50;99.90
4520;DHT22;2272;49.226;8.108;2024-03-08T11:31:23;8.70;99.90
4520;DHT22;2272;49.226;8.108;2024-03-08T11:33:52;8.80;99.90
4520;DHT22;2272;49.226;8.108;2024-03-08T11:36:21;8.60;99.90
4520;DHT22;2272;49.226;8.108;2024-03-08T11:38:48;8.60;99.90
4520;DHT22;2272;49.226;8.108;2024-03-08T11:41:17;8.70;99.90
4520;DHT22;2272;49.226;8.108;2024-03-08T11:43:45;8.70;99.90
4520;DHT22;2272;49.226;8.108;2024-03-08T11:46:13;8.70;99.90
4520;DHT22;2272;49.226;8.108;2024-03-08T11:48:40;8.70;99.90
4520;DHT22;2272;49.226;8.108;2024-03-08T11:51:09;8.70;99.90
4520;DHT22;2272;49.226;8.108;2024-03-08T11:53:37;8.80;99.90
4520;DHT22;2272;49.226;8.108;2024-03-08T11:56:11;8.90;99.90
4520;DHT22;2272;49.226;8.108;2024-03-08T11:58:38;9.00;99.90
4520;DHT22;2272;49.226;8.108;2024-03-08T12:01:05;8.90;99.90
4520;DHT22;2272;49.226;8.108;2024-03-08T12:03:34;8.80;99.90
4520;DHT22;2272;49.226;8.108;2024-03-08T12:06:01;8.80;99.90
4520;DHT22;2272;49.226;8.108;2024-03-08T12:08:30;9.20;99.90
4520;DHT22;2272;49.226;8.108;2024-03-08T12:10:57;9.40;99.90
4520;DHT22;2272;49.226;8.108;2024-03-08T12:13:26;9.40;99.90
4520;DHT22;2272;49.226;8.108;2024-03-08T12:15:55;9.50;99.90
4520;DHT22;2272;49.226;8.108;2024-03-08T12:18:22;9.70;99.90
4520;DHT22;2272;49.226;8.108;2024-03-08T12:20:49;9.90;99.90
4520;DHT22;2272;49.226;8.108;2024-03-08T12:23:16;10.90;99.90
4520;DHT22;2272;49.226;8.108;2024-03-08T12:25:44;10.30;99.90
4520;DHT22;2272;49.226;8.108;2024-03-08T12:28:13;10.40;99.90
4520;DHT22;2272;49.226;8.108;2024-03-08T12:30:46;10.20;99.90
4520;DHT22;2272;49.226;8.108;2024-03-08T12:33:13;9.90;99.90
4520;DHT22;2272;49.226;8.108;2024-03-08T12:35:40;9.70;99.90
4520;DHT22;2272;49.226;8.108;2024-03-08T12:38:07;9.80;99.90
4520;DHT22;2272;49.226;8.108;2024-03-08T12:40:34;9.90;99.90
4520;DHT22;2272;49.226;8.108;2024-03-08T12:43:07;10.00;99.90
4520;DHT22;2272;49.226;8.108;2024-03-08T12:45:34;10.20;99.90
4520;DHT22;2272;49.226;8.108;2024-03-08T12:48:00;10.40;99.90
4520;DHT22;2272;49.226;8.108;2024-03-08T12:50:28;10.50;99.90
4520;DHT22;2272;49.226;8.108;2024-03-08T12:52:55;10.50;99.90
4520;DHT22;2272;49.226;8.108;2024-03-08T12:55:22;10.20;99.90
4520;DHT22;2272;49.226;8.108;2024-03-08T12:57:49;10.00;99.90
4520;DHT22;2272;49.226;8.108;2024-03-08T13:00:20;9.80;99.90
4520;DHT22;2272;49.226;8.108;2024-03-08T13:02:48;9.90;99.90
4520;DHT22;2272;49.226;8.108;2024-03-08T13:05:17;10.00;99.90
4520;DHT22;2272;49.226;8.108;2024-03-08T13:07:43;9.80;99.90
4520;DHT22;2272;49.226;8.108;2024-03-08T13:10:11;9.70;99.90
4520;DHT22;2272;49.226;8.108;2024-03-08T13:12:40;9.60;99.90
4520;DHT22;2272;49.226;8.108;2024-03-08T13:15:07;9.70;99.90
4520;DHT22;2272;49.226;8.108;2024-03-08T13:17:38;9.80;99.90
4520;DHT22;2272;49.226;8.108;2024-03-08T13:20:07;9.90;99.90
4520;DHT22;2272;49.226;8.108;2024-03-08T13:22:34;9.90;99.90
4520;DHT22;2272;49.226;8.108;2024-03-08T13:25:01;9.90;99.90
4520;DHT22;2272;49.226;8.108;2024-03-08T13:27:28;9.90;99.90
4520;DHT22;2272;49.226;8.108;2024-03-08T13:29:55;9.90;99.90
4520;DHT22;2272;49.226;8.108;2024-03-08T13:32:21;9.60;99.90
4520;DHT22;2272;49.226;8.108;2024-03-08T13:34:50;9.40;99.90
4520;DHT22;2272;49.226;8.108;2024-03-08T13:37:17;9.20;99.90
4520;DHT22;2272;49.226;8.108;2024-03-08T13:39:45;9.00;99.90
4520;DHT22;2272;49.226;8.108;2024-03-08T13:42:12;8.80;99.90
4520;DHT22;2272;49.226;8.108;2024-03-08T13:44:43;8.70;99.90
4520;DHT22;2272;49.226;8.108;2024-03-08T13:47:11;8.70;99.90
4520;DHT22;2272;49.226;8.108;2024-03-08T13:49:39;9.00;99.90
4520;DHT22;2272;49.226;8.108;2024-03-08T13:52:07;9.20;99.90
4520;DHT22;2272;49.226;8.108;2024-03-08T13:54:34;9.50;99.90
4520;DHT22;2272;49.226;8.108;2024-03-08T13:57:01;9.60;99.90
4520;DHT22;2272;49.226;8.108;2024-03-08T13:59:29;9.50;99.90
4520;DHT22;2272;49.226;8.108;2024-03-08T14:01:58;9.40;99.90
4520;DHT22;2272;49.226;8.108;2024-03-08T14:04:25;9.40;99.90
4520;DHT22;2272;49.226;8.108;2024-03-08T14:06:52;9.50;99.90
4520;DHT22;2272;49.226;8.108;2024-03-08T14:09:23;9.40;99.90
4520;DHT22;2272;49.226;8.108;2024-03-08T14:11:51;9.40;99.90
4520;DHT22;2272;49.226;8.108;2024-03-08T14:14:20;9.40;99.90
4520;DHT22;2272;49.226;8.108;2024-03-08T14:16:48;9.50;99.90
4520;DHT22;2272;49.226;8.108;2024-03-08T14:19:18;9.70;99.90
4520;DHT22;2272;49.226;8.108;2024-03-08T14:21:45;9.80;99.90
4520;DHT22;2272;49.226;8.108;2024-03-08T14:24:13;9.80;99.90
4520;DHT22;2272;49.226;8.108;2024-03-08T14:26:42;9.60;99.90
4520;DHT22;2272;49.226;8.108;2024-03-08T14:29:08;9.40;99.90
4520;DHT22;2272;49.226;8.108;2024-03-08T14:31:36;9.30;99.90
4520;DHT22;2272;49.226;8.108;2024-03-08T14:34:03;9.30;99.90
4520;DHT22;2272;49.226;8.108;2024-03-08T14:36:30;9.40;99.90
4520;DHT22;2272;49.226;8.108;2024-03-08T14:38:57;9.40;99.90
4520;DHT22;2272;49.226;8.108;2024-03-08T14:41:24;9.60;99.90
4520;DHT22;2272;49.226;8.108;2024-03-08T14:43:53;9.70;99.90
4520;DHT22;2272;49.226;8.108;2024-03-08T14:46:20;9.80;99.90
4520;DHT22;2272;49.226;8.108;2024-03-08T14:48:49;9.90;99.90
4520;DHT22;2272;49.226;8.108;2024-03-08T14:51:16;9.90;99.90
4520;DHT22;2272;49.226;8.108;2024-03-08T14:53:45;10.00;99.90
4520;DHT22;2272;49.226;8.108;2024-03-08T14:56:12;9.90;99.90
4520;DHT22;2272;49.226;8.108;2024-03-08T14:58:41;9.90;99.90
4520;DHT22;2272;49.226;8.108;2024-03-08T15:04:33;9.70;99.90
4520;DHT22;2272;49.226;8.108;2024-03-08T15:07:01;9.70;99.90
4520;DHT22;2272;49.226;8.108;2024-03-08T15:09:28;9.80;99.90
4520;DHT22;2272;49.226;8.108;2024-03-08T15:11:55;9.80;99.90
4520;DHT22;2272;49.226;8.108;2024-03-08T15:14:22;9.90;99.90
4520;DHT22;2272;49.226;8.108;2024-03-08T15:16:50;9.90;99.90
4520;DHT22;2272;49.226;8.108;2024-03-08T15:19:17;9.90;99.90
4520;DHT22;2272;49.226;8.108;2024-03-08T15:21:47;10.00;99.90
4520;DHT22;2272;49.226;8.108;2024-03-08T15:24:16;10.10;99.90
4520;DHT22;2272;49.226;8.108;2024-03-08T15:26:46;10.10;99.90
4520;DHT22;2272;49.226;8.108;2024-03-08T15:29:16;10.00;99.90
4520;DHT22;2272;49.226;8.108;2024-03-08T15:31:49;10.00;99.90
4520;DHT22;2272;49.226;8.108;2024-03-08T15:34:22;9.90;99.90
4520;DHT22;2272;49.226;8.108;2024-03-08T15:40:11;9.90;99.90
4520;DHT22;2272;49.226;8.108;2024-03-08T15:42:47;9.80;99.90
4520;DHT22;2272;49.226;8.108;2024-03-08T15:45:14;9.80;99.90
4520;DHT22;2272;49.226;8.108;2024-03-08T15:47:41;9.70;99.90
4520;DHT22;2272;49.226;8.108;2024-03-08T15:50:09;9.70;99.90
4520;DHT22;2272;49.226;8.108;2024-03-08T15:52:37;9.60;99.90
4520;DHT22;2272;49.226;8.108;2024-03-08T15:55:06;9.60;99.90
4520;DHT22;2272;49.226;8.108;2024-03-08T15:57:34;9.60;99.90
4520;DHT22;2272;49.226;8.108;2024-03-08T16:00:02;9.60;99.90
4520;DHT22;2272;49.226;8.108;2024-03-08T16:02:39;9.60;99.90
4520;DHT22;2272;49.226;8.108;2024-03-08T16:05:07;9.60;99.90
4520;DHT22;2272;49.226;8.108;2024-03-08T16:07:35;9.50;99.90
4520;DHT22;2272;49.226;8.108;2024-03-08T16:10:02;9.50;99.90
4520;DHT22;2272;49.226;8.108;2024-03-08T16:12:35;9.40;99.90
4520;DHT22;2272;49.226;8.108;2024-03-08T16:15:03;9.40;99.90
4520;DHT22;2272;49.226;8.108;2024-03-08T16:17:31;9.30;99.90
4520;DHT22;2272;49.226;8.108;2024-03-08T16:19:58;9.20;99.90
4520;DHT22;2272;49.226;8.108;2024-03-08T16:22:24;9.20;99.90
4520;DHT22;2272;49.226;8.108;2024-03-08T16:24:52;9.10;99.90
4520;DHT22;2272;49.226;8.108;2024-03-08T16:27:18;9.00;99.90
4520;DHT22;2272;49.226;8.108;2024-03-08T16:29:47;8.90;99.90
4520;DHT22;2272;49.226;8.108;2024-03-08T16:32:17;8.90;99.90
4520;DHT22;2272;49.226;8.108;2024-03-08T16:34:46;8.80;99.90
4520;DHT22;2272;49.226;8.108;2024-03-08T16:37:12;8.70;99.90
4520;DHT22;2272;49.226;8.108;2024-03-08T16:39:40;8.50;99.90
4520;DHT22;2272;49.226;8.108;2024-03-08T16:42:07;8.50;99.90